Tuesday, August 21, 2018, 9:52 AM EDT
Back to Local

KRKD, Rockland, Knox County Regional Airport

Location: Owls Head, ME, United States Lat: 44.067
Local Time: 9:52 AM EDT (13:52 GMT) Lon: -69.1
Time Zone: US/Eastern Elev: 55 ft

Show me the last for .
Show Decoded

2018-08-21 08:56 METAR KRKD 211256Z AUTO 04003KT 10SM CLR 18/15 A3017 RMK AO2 SLP218 T01830150 =
2018-08-21 07:56 METAR KRKD 211156Z AUTO VRB03KT 10SM CLR 17/16 A3017 RMK AO2 SLP217 T01670156
                 10167 20094 53003 =
2018-08-21 05:56 METAR KRKD 210956Z AUTO 00000KT 10SM CLR 10/09 A3015 RMK AO2 SLP211 T01000094 =
2018-08-21 04:56 METAR KRKD 210856Z AUTO 00000KT 9SM CLR 10/10 A3016 RMK AO2 SLP213 T01000100
                 56008 =
2018-08-21 03:56 METAR KRKD 210756Z AUTO 00000KT 10SM CLR 10/10 A3016 RMK AO2 SLP215 T01000100 =
2018-08-21 03:28 METAR KRKD 210728Z AUTO 29003KT 10SM FEW002 11/11 A3017 RMK AO2 =
2018-08-21 03:08 METAR KRKD 210708Z AUTO 00000KT 2SM BR FEW002 11/10 A3017 RMK AO2 VIS 3/4V5 =
2018-08-21 02:56 METAR KRKD 210656Z AUTO 29003KT 10SM CLR 11/11 A3017 RMK AO2 SLP217 T01110111 =
2018-08-21 00:56 METAR KRKD 210456Z AUTO 00000KT 10SM CLR 12/11 A3018 RMK AO2 SLP222 T01170111
                 402280111 =
2018-08-20 23:56 METAR KRKD 210356Z AUTO 00000KT 9SM CLR 12/12 A3019 RMK AO2 SLP225 T01220122 =
2018-08-20 22:56 METAR KRKD 210256Z AUTO 00000KT 10SM CLR 12/12 A3020 RMK AO2 SLP228 T01220122
                 51006 =
2018-08-20 21:56 METAR KRKD 210156Z AUTO 00000KT 10SM CLR 13/12 A3020 RMK AO2 SLP227 T01280122 =
2018-08-20 20:56 METAR KRKD 210056Z AUTO 00000KT 10SM CLR 14/13 A3020 RMK AO2 SLP228 T01390133 =
2018-08-20 19:56 METAR KRKD 202356Z AUTO 00000KT 10SM CLR 16/14 A3018 RMK AO2 SLP222 T01560139
                 10211 20156 53003 =
2018-08-20 18:56 METAR KRKD 202256Z AUTO 11004KT 10SM CLR 17/14 A3018 RMK AO2 SLP221 T01720144 =
2018-08-20 17:56 METAR KRKD 202156Z AUTO 13005KT 10SM CLR 19/14 A3017 RMK AO2 SLP219 T01940144 =
2018-08-20 16:56 METAR KRKD 202056Z AUTO 11008KT 10SM CLR 20/14 A3017 RMK AO2 SLP219 T02000144
                 55003 =
2018-08-20 15:56 METAR KRKD 201956Z AUTO 12010KT 10SM CLR 21/16 A3017 RMK AO2 SLP218 T02060156 =
2018-08-20 14:56 METAR KRKD 201856Z AUTO 12011KT 10SM CLR 21/16 A3018 RMK AO2 SLP220 T02110156 =
2018-08-20 13:56 METAR KRKD 201756Z AUTO 11010KT 10SM CLR 21/15 A3018 RMK AO2 SLP222 T02110150
                 10228 20172 58010 =
2018-08-20 12:56 METAR KRKD 201656Z AUTO 12009KT 10SM CLR 21/17 A3019 RMK AO2 SLP226 T02060167 =
2018-08-20 11:56 METAR KRKD 201556Z AUTO 11008KT 7SM CLR 22/17 A3020 RMK AO2 SLP229 T02220167 =
2018-08-20 10:56 METAR KRKD 201456Z AUTO VRB04KT 10SM SCT001 22/16 A3021 RMK AO2 SLP232 T02170161
                 51003 =
2018-08-20 09:56 METAR KRKD 201356Z AUTO 05006KT 10SM CLR 21/17 A3022 RMK AO2 SLP233 T02060167 =

Support USWX by starting your Amazon purchase here.